createdAt,value
2018-07-04T00:01:20.821Z,2.00
2018-07-04T00:06:30.972Z,2.17
2018-07-04T00:11:41.050Z,2.27
2018-07-04T00:16:51.277Z,2.13
2018-07-04T00:22:01.357Z,2.27
2018-07-04T00:27:11.456Z,1.80
2018-07-04T00:32:21.644Z,2.50
2018-07-04T00:37:31.703Z,2.30
2018-07-04T00:42:41.828Z,2.50
2018-07-04T00:47:51.938Z,2.10
2018-07-04T00:53:02.102Z,2.23
2018-07-04T00:58:12.146Z,2.60
2018-07-04T01:03:22.228Z,2.63
2018-07-04T01:08:32.404Z,2.70
2018-07-04T01:13:42.530Z,2.30
2018-07-04T01:18:52.898Z,2.33
2018-07-04T01:24:03.052Z,2.60
2018-07-04T01:29:13.169Z,2.10
2018-07-04T01:34:23.343Z,2.37
2018-07-04T01:39:33.527Z,2.70
2018-07-04T01:44:43.584Z,2.60
2018-07-04T01:49:53.791Z,2.50
2018-07-04T01:55:03.977Z,2.30
2018-07-04T02:00:14.064Z,2.60
2018-07-04T02:05:24.192Z,2.70
2018-07-04T02:10:34.347Z,2.77
2018-07-04T02:15:44.558Z,2.77
2018-07-04T02:20:54.749Z,2.83
2018-07-04T02:26:04.901Z,2.67
2018-07-04T02:31:15.161Z,3.03
2018-07-04T02:36:25.277Z,2.97
2018-07-04T02:41:35.301Z,2.97
2018-07-04T02:46:45.491Z,2.97
2018-07-04T02:51:55.557Z,3.33
2018-07-04T02:57:05.712Z,3.10
2018-07-04T03:02:15.792Z,3.10
2018-07-04T03:07:25.893Z,3.00
2018-07-04T03:12:36.110Z,3.10
2018-07-04T03:17:46.245Z,3.50
2018-07-04T03:22:56.306Z,3.20
2018-07-04T03:28:06.416Z,2.87
2018-07-04T03:33:16.562Z,3.10
2018-07-04T03:38:26.628Z,3.20
2018-07-04T03:43:36.741Z,3.40
2018-07-04T03:48:46.869Z,3.90
2018-07-04T03:53:57.058Z,4.23
2018-07-04T03:59:07.233Z,3.63
2018-07-04T04:04:17.413Z,4.20
2018-07-04T04:09:27.386Z,4.30
2018-07-04T04:14:37.453Z,5.10
2018-07-04T04:19:47.604Z,6.27
2018-07-04T04:24:57.702Z,5.80
2018-07-04T04:30:07.850Z,5.63
2018-07-04T04:35:17.929Z,12.10
2018-07-04T04:40:28.092Z,8.27
2018-07-04T04:45:38.087Z,6.43
2018-07-04T04:50:48.364Z,5.90
2018-07-04T04:55:58.368Z,5.63
2018-07-04T05:01:08.463Z,4.73
2018-07-04T05:06:18.613Z,5.13
2018-07-04T05:11:28.647Z,5.30
2018-07-04T05:16:38.779Z,4.70
2018-07-04T05:21:48.910Z,3.90
2018-07-04T05:26:58.880Z,4.30
2018-07-04T05:32:09.018Z,3.93
2018-07-04T05:37:19.137Z,3.97
2018-07-04T05:42:29.190Z,3.40
2018-07-04T05:47:39.469Z,3.70
2018-07-04T05:52:49.583Z,2.80
2018-07-04T05:57:59.749Z,2.53
2018-07-04T06:03:09.910Z,2.70
2018-07-04T06:08:20.017Z,2.70
2018-07-04T06:13:30.087Z,2.70
2018-07-04T06:18:40.182Z,2.60
2018-07-04T06:23:50.552Z,2.77
2018-07-04T06:29:00.674Z,2.03
2018-07-04T06:34:10.704Z,2.63
2018-07-04T06:39:02.259Z,2.40
2018-07-04T06:43:53.739Z,1.80
2018-07-04T06:48:45.252Z,1.97
2018-07-04T06:53:36.707Z,2.60
2018-07-04T06:58:28.388Z,1.90
2018-07-04T07:03:38.475Z,2.70
2018-07-04T07:08:48.518Z,2.33
2018-07-04T07:13:58.540Z,2.17
2018-07-04T07:19:08.968Z,2.43
2018-07-04T07:24:19.164Z,1.80
2018-07-04T07:29:29.200Z,2.00
2018-07-04T07:34:39.250Z,2.17
2018-07-04T07:39:49.488Z,2.10
2018-07-04T07:44:59.459Z,2.40
2018-07-04T07:50:09.572Z,2.33
2018-07-04T08:00:41.495Z,2.50
2018-07-04T08:05:51.771Z,2.13
2018-07-04T08:11:01.730Z,2.67
2018-07-04T08:16:11.806Z,2.30
2018-07-04T08:21:22.055Z,2.50
2018-07-04T08:26:32.309Z,2.47
2018-07-04T08:31:42.380Z,2.30
2018-07-04T08:36:52.469Z,2.20
2018-07-04T08:42:02.613Z,1.87
2018-07-04T08:47:12.716Z,1.90
2018-07-04T08:52:22.901Z,1.80
2018-07-04T08:57:33.072Z,2.03
2018-07-04T09:02:43.582Z,2.57
2018-07-04T09:07:53.693Z,1.90
2018-07-04T09:13:03.644Z,2.10
2018-07-04T09:18:13.790Z,2.23
2018-07-04T09:23:23.866Z,2.37
2018-07-04T09:28:34.050Z,2.13
2018-07-04T09:33:44.336Z,1.90
2018-07-04T09:38:54.393Z,2.00
2018-07-04T09:44:04.467Z,2.40
2018-07-04T09:49:14.684Z,2.23
2018-07-04T09:54:24.824Z,2.30
2018-07-04T09:59:34.945Z,2.50
2018-07-04T10:04:45.151Z,2.50
2018-07-04T10:09:55.168Z,2.13
2018-07-04T10:15:05.313Z,2.00
2018-07-04T10:20:15.804Z,2.57
2018-07-04T10:25:25.940Z,1.80
2018-07-04T10:30:35.956Z,2.67
2018-07-04T10:35:45.965Z,2.43
2018-07-04T10:40:56.166Z,2.40
2018-07-04T10:46:06.379Z,1.93
2018-07-04T10:51:16.500Z,1.87
2018-07-04T10:56:26.633Z,2.50
2018-07-04T11:01:36.882Z,1.97
2018-07-04T11:06:46.931Z,2.27
2018-07-04T11:11:57.071Z,2.13
2018-07-04T11:17:07.413Z,2.27
2018-07-04T11:22:17.475Z,2.20
2018-07-04T11:27:27.558Z,2.33
2018-07-04T11:32:37.608Z,1.90
2018-07-04T11:37:47.607Z,3.73
2018-07-04T11:42:57.723Z,2.80
2018-07-04T11:47:49.190Z,2.10
2018-07-04T11:52:40.718Z,2.00
2018-07-04T11:57:32.217Z,2.00
2018-07-04T12:02:23.800Z,2.20
2018-07-04T12:07:15.287Z,1.90
2018-07-04T12:12:06.752Z,2.03
2018-07-04T12:16:58.689Z,2.33
2018-07-04T12:21:50.197Z,2.40
2018-07-04T12:26:41.725Z,2.50
2018-07-04T12:31:33.213Z,2.10
2018-07-04T12:36:24.744Z,1.93
2018-07-04T12:41:16.276Z,1.90
2018-07-04T12:46:07.769Z,1.80
2018-07-04T12:50:59.268Z,1.43
2018-07-04T12:56:09.328Z,2.10
2018-07-04T13:01:19.504Z,1.80
2018-07-04T13:06:29.677Z,1.80
2018-07-04T13:11:39.913Z,1.90
2018-07-04T13:16:50.052Z,1.50
2018-07-04T13:22:00.320Z,1.80
2018-07-04T13:27:10.297Z,1.67
2018-07-04T13:32:20.409Z,1.67
2018-07-04T13:37:30.403Z,2.00
2018-07-04T13:42:40.500Z,1.70
2018-07-04T13:47:50.681Z,1.80
2018-07-04T13:53:00.798Z,1.77
2018-07-04T13:58:10.856Z,2.13
2018-07-04T14:03:20.980Z,1.90
2018-07-04T14:08:31.166Z,2.10
2018-07-04T14:13:41.355Z,1.80
2018-07-04T14:18:51.481Z,2.33
2018-07-04T14:24:01.663Z,2.00
2018-07-04T14:29:11.936Z,2.00
2018-07-04T14:34:22.043Z,2.53
2018-07-04T14:39:32.190Z,1.90
2018-07-04T14:44:42.143Z,2.27
2018-07-04T14:49:52.331Z,2.00
2018-07-04T14:55:02.424Z,2.33
2018-07-04T15:00:12.648Z,2.47
2018-07-04T15:05:22.594Z,2.20
2018-07-04T15:10:32.758Z,2.40
2018-07-04T15:15:43.017Z,1.97
2018-07-04T15:20:52.926Z,1.93
2018-07-04T15:26:03.028Z,2.10
2018-07-04T15:31:13.119Z,2.10
2018-07-04T15:36:23.235Z,2.20
2018-07-04T15:41:33.328Z,1.90
2018-07-04T15:46:43.375Z,1.83
2018-07-04T15:51:53.404Z,2.13
2018-07-04T15:57:03.748Z,2.00
2018-07-04T16:02:13.714Z,2.40
2018-07-04T16:07:23.827Z,2.00
2018-07-04T16:12:33.972Z,2.10
2018-07-04T16:17:44.092Z,2.10
2018-07-04T16:22:54.301Z,2.10
2018-07-04T16:28:04.295Z,2.33
2018-07-04T16:33:14.384Z,2.10
2018-07-04T16:38:24.445Z,2.20
2018-07-04T16:43:34.659Z,2.40
2018-07-04T16:48:44.775Z,2.23
2018-07-04T16:53:54.915Z,2.50
2018-07-04T16:59:05.081Z,2.53
2018-07-04T17:04:15.144Z,2.30
2018-07-04T17:09:25.190Z,2.77
2018-07-04T17:14:35.320Z,2.43
2018-07-04T17:19:45.392Z,2.10
2018-07-04T17:24:55.409Z,2.23
2018-07-04T17:30:05.571Z,2.87
2018-07-04T17:35:15.668Z,2.30
2018-07-04T17:40:25.789Z,2.57
2018-07-04T17:45:35.944Z,1.93
2018-07-04T17:50:46.130Z,2.30
2018-07-04T17:55:56.288Z,2.23
2018-07-04T18:01:06.363Z,2.33
2018-07-04T18:06:16.455Z,2.60
2018-07-04T18:11:26.659Z,2.40
2018-07-04T18:16:36.727Z,2.93
2018-07-04T18:21:46.853Z,2.50
2018-07-04T18:26:57.024Z,3.33
2018-07-04T18:32:07.495Z,3.43
2018-07-04T18:37:17.455Z,3.00
2018-07-04T18:42:27.506Z,2.80
2018-07-04T18:47:37.507Z,2.93
2018-07-04T18:52:47.725Z,2.77
2018-07-04T18:57:57.858Z,3.00
2018-07-04T19:03:07.981Z,3.63
2018-07-04T19:08:18.143Z,3.30
2018-07-04T19:13:28.241Z,2.93
2018-07-04T19:18:38.331Z,3.60
2018-07-04T19:23:48.720Z,3.30
2018-07-04T19:28:58.977Z,3.47
2018-07-04T19:34:09.040Z,4.40
2018-07-04T19:39:19.216Z,3.40
2018-07-04T19:44:29.343Z,3.20
2018-07-04T19:49:39.539Z,3.70
2018-07-04T19:54:49.584Z,3.70
2018-07-04T19:59:59.624Z,3.57
2018-07-04T20:05:10.165Z,3.90
2018-07-04T20:10:20.336Z,4.10
2018-07-04T20:15:30.511Z,4.13
2018-07-04T20:20:40.594Z,4.07
2018-07-04T20:25:50.644Z,4.10
2018-07-04T20:31:00.916Z,4.20
2018-07-04T20:36:11.109Z,3.90
2018-07-04T20:41:21.255Z,4.50
2018-07-04T20:46:31.360Z,4.27
2018-07-04T20:51:41.444Z,4.30
2018-07-04T20:56:51.676Z,4.00
2018-07-04T21:02:01.853Z,4.13
2018-07-04T21:07:11.815Z,5.40
2018-07-04T21:12:21.957Z,3.90
2018-07-04T21:17:32.050Z,3.63
2018-07-04T21:22:42.164Z,6.73
2018-07-04T21:27:52.402Z,5.90
2018-07-04T21:33:02.592Z,4.80
2018-07-04T21:38:12.545Z,4.90
2018-07-04T21:43:22.622Z,4.40
2018-07-04T21:48:32.687Z,4.83
2018-07-04T21:53:42.922Z,4.53
2018-07-04T21:58:53.021Z,4.87
2018-07-04T22:04:03.216Z,4.93
2018-07-04T22:09:13.215Z,5.67
2018-07-04T22:14:23.424Z,5.20
2018-07-04T22:19:33.551Z,5.43
2018-07-04T22:24:43.714Z,5.37
2018-07-04T22:29:53.755Z,7.43
2018-07-04T22:35:03.888Z,6.07
2018-07-04T22:40:14.835Z,6.40
2018-07-04T22:45:24.973Z,6.37
2018-07-04T22:50:35.078Z,7.10
2018-07-04T22:55:45.183Z,6.57
2018-07-04T23:00:55.320Z,6.10
2018-07-04T23:06:05.411Z,6.47
2018-07-04T23:11:15.497Z,6.30
2018-07-04T23:16:25.615Z,6.00
2018-07-04T23:21:35.730Z,6.23
2018-07-04T23:26:45.882Z,6.47
2018-07-04T23:31:55.974Z,6.40
2018-07-04T23:37:06.161Z,5.60
2018-07-04T23:42:16.188Z,5.77
2018-07-04T23:47:26.278Z,6.17
2018-07-04T23:52:36.336Z,5.80
2018-07-04T23:57:46.412Z,5.77
